CheckWX is a tool to help pilots better visualize weather data.  It is not intended as a substitute for an official pre-flight weather briefing.

15:33:20 UTC

KCRQ METAR
Mc Clellan-Palomar Airport
Carlsbad, California, USA
Current

40 mins ago

KCRQ 201453Z AUTO VRB06KT 8SM -RA BKN017 BKN025 15/12 A2989 RMK AO2 RAE19B52 SLP119 P0001 60013 T01500122 53010
Observed
May-20 @ 14:53 UTC
Wind
  • Variable at 6 KTS
Visibility
8 SM
Flight Rules
MVFR
Conditions
Light Rain
Cloud Levels
  • Broken at 1,700' AGL
  • Broken at 2,500' AGL
Temperature
15°C / 59°F
Dewpoint
12°C / 54°F
Humidity
82%
Altimeter
29.89" Hg
Pressure
1012.22 hPa
Current Rain
0.01"
Previous

1 hour ago

KCRQ 201430Z AUTO VRB03KT 10SM SCT019 BKN028 OVC041 15/12 A2989 RMK AO2 RAE19 P0001 T01500122
Observed
May-20 @ 14:30 UTC
Wind
  • Variable at 3 KTS
Visibility
10 SM
Flight Rules
MVFR
Cloud Levels
  • Scattered at 1,900' AGL
  • Broken at 2,800' AGL
  • Overcast at 4,100' AGL
Temperature
15°C / 59°F
Dewpoint
12°C / 54°F
Humidity
82%
Altimeter
29.89" Hg
Pressure
1012.22 hPa
Current Rain
0.01"
Previous

2 hours ago

KCRQ 201401Z AUTO VRB04KT 5SM -RA BR SCT018 BKN031 OVC065 14/12 A2988 RMK AO2 P0000 T01390117
Observed
May-20 @ 14:01 UTC
Wind
  • Variable at 4 KTS
Visibility
5 SM
Flight Rules
MVFR
Conditions
Light Rain, Mist
Cloud Levels
  • Scattered at 1,800' AGL
  • Broken at 3,100' AGL
  • Overcast at 6,500' AGL
Temperature
14°C / 57°F
Dewpoint
12°C / 54°F
Humidity
88%
Altimeter
29.88" Hg
Pressure
1011.82 hPa
Current Rain
0.01"